Terminal Aerodrome Forecast
Issued by NWS Bismarck, ND

Home | Current Version | Previous Version | Graphics & Text | Print | Product List | Glossary On
Versions: 1 2 3 4 5 6 7 8 9 10 11 12 13 14 15 16 17 18 19 20 21 22
000
FTUS43 KBIS 192000 AAA
TAFBIS
TAF AMD
KBIS 192031Z 1921/2018 32025G37KT P6SM VCSH SCT035 BKN060
      TEMPO 1921/1923 -SHRA BKN035
     FM200200 33011G20KT P6SM SCT050
     FM200700 32010KT P6SM SCT250
     FM201600 32020G29KT P6SM SCT230=

USA.gov is the U.S. government's official web portal to all federal, state and local government web resources and services.